createdAt,value
2022-08-26T00:00:59.632Z,3.97
2022-08-26T00:03:02.485Z,4.50
2022-08-26T00:05:06.362Z,4.00
2022-08-26T00:07:09.347Z,4.37
2022-08-26T00:09:12.125Z,4.07
2022-08-26T00:11:15.561Z,3.77
2022-08-26T00:13:30.367Z,3.80
2022-08-26T00:15:33.728Z,3.70
2022-08-26T00:17:40.188Z,3.80
2022-08-26T00:19:43.246Z,4.40
2022-08-26T00:21:46.085Z,3.77
2022-08-26T00:23:48.937Z,4.13
2022-08-26T00:25:51.773Z,4.30
2022-08-26T00:27:54.827Z,4.10
2022-08-26T00:29:58.798Z,3.70
2022-08-26T00:32:04.068Z,3.60
2022-08-26T00:34:09.604Z,3.77
2022-08-26T00:36:20.122Z,4.00
2022-08-26T00:38:23.947Z,3.93
2022-08-26T00:40:30.163Z,3.57
2022-08-26T00:42:33.046Z,4.10
2022-08-26T00:44:35.897Z,3.93
2022-08-26T00:46:46.498Z,4.07
2022-08-26T00:48:53.476Z,3.93
2022-08-26T00:51:01.708Z,3.90
2022-08-26T00:53:21.444Z,4.00
2022-08-26T00:55:37.726Z,3.90
2022-08-26T00:57:41.240Z,4.10
2022-08-26T00:59:46.878Z,3.73
2022-08-26T01:01:51.489Z,3.90
2022-08-26T01:03:55.458Z,4.00
2022-08-26T01:06:02.299Z,3.93
2022-08-26T01:08:07.040Z,4.27
2022-08-26T01:10:16.174Z,4.27
2022-08-26T01:12:22.013Z,4.03
2022-08-26T01:14:27.743Z,4.40
2022-08-26T01:16:33.146Z,4.23
2022-08-26T01:18:36.813Z,3.97
2022-08-26T01:20:50.225Z,4.00
2022-08-26T01:22:58.414Z,3.90
2022-08-26T01:25:06.428Z,4.10
2022-08-26T01:27:13.630Z,3.77
2022-08-26T01:29:20.197Z,4.33
2022-08-26T01:31:25.811Z,7.53
2022-08-26T01:33:39.967Z,5.13
2022-08-26T01:35:45.729Z,4.70
2022-08-26T01:37:50.596Z,4.63
2022-08-26T01:39:58.904Z,4.50
2022-08-26T01:42:03.369Z,4.60
2022-08-26T01:44:09.747Z,4.30
2022-08-26T01:46:14.705Z,4.40
2022-08-26T01:48:25.075Z,4.10
2022-08-26T01:50:31.476Z,4.43
2022-08-26T01:52:39.426Z,4.33
2022-08-26T01:54:42.586Z,4.10
2022-08-26T01:56:51.995Z,4.10
2022-08-26T01:58:58.502Z,4.23
2022-08-26T02:01:01.478Z,4.37
2022-08-26T02:03:21.525Z,4.87
2022-08-26T02:05:24.970Z,4.50
2022-08-26T02:07:29.143Z,4.40
2022-08-26T02:09:32.420Z,4.27
2022-08-26T02:11:41.445Z,4.43
2022-08-26T02:13:49.481Z,4.60
2022-08-26T02:15:55.165Z,4.20
2022-08-26T02:17:58.134Z,4.70
2022-08-26T02:20:00.994Z,4.77
2022-08-26T02:22:06.931Z,4.67
2022-08-26T02:24:12.675Z,5.83
2022-08-26T02:26:19.385Z,4.70
2022-08-26T02:28:22.952Z,5.20
2022-08-26T02:30:33.591Z,4.27
2022-08-26T02:32:37.222Z,5.10
2022-08-26T02:34:43.035Z,4.60
2022-08-26T02:36:45.849Z,4.43
2022-08-26T02:38:49.144Z,4.53
2022-08-26T02:40:55.139Z,4.97
2022-08-26T02:42:58.303Z,4.97
2022-08-26T02:45:03.227Z,5.03
2022-08-26T02:47:09.406Z,4.93
2022-08-26T02:49:12.567Z,4.37
2022-08-26T02:51:15.443Z,4.10
2022-08-26T02:53:24.496Z,4.30
2022-08-26T02:55:27.953Z,4.20
2022-08-26T02:57:30.956Z,4.27
2022-08-26T02:59:35.910Z,4.50
2022-08-26T03:01:38.685Z,4.90
2022-08-26T03:03:42.800Z,4.40
2022-08-26T03:05:45.559Z,5.00
2022-08-26T03:07:48.679Z,4.70
2022-08-26T03:09:52.939Z,5.00
2022-08-26T03:11:56.022Z,4.57
2022-08-26T03:14:00.471Z,4.77
2022-08-26T03:16:05.589Z,4.50
2022-08-26T03:18:08.659Z,4.83
2022-08-26T03:20:13.612Z,5.07
2022-08-26T03:22:18.213Z,4.47
2022-08-26T03:24:23.276Z,4.63
2022-08-26T03:26:29.204Z,4.83
2022-08-26T03:28:32.841Z,4.27
2022-08-26T03:30:45.220Z,3.97
2022-08-26T03:32:48.570Z,4.53
2022-08-26T03:34:51.400Z,4.70
2022-08-26T03:36:55.632Z,4.70
2022-08-26T03:38:59.381Z,4.37
2022-08-26T03:41:02.588Z,4.83
2022-08-26T03:43:09.814Z,4.27
2022-08-26T03:45:14.036Z,4.30
2022-08-26T03:47:17.788Z,4.70
2022-08-26T03:49:20.532Z,4.97
2022-08-26T03:51:23.400Z,4.50
2022-08-26T03:53:28.705Z,4.70
2022-08-26T03:55:33.372Z,4.27
2022-08-26T03:57:36.320Z,4.10
2022-08-26T03:59:39.060Z,4.30
2022-08-26T04:01:44.229Z,4.90
2022-08-26T04:04:00.156Z,5.50
2022-08-26T04:06:03.516Z,5.27
2022-08-26T04:08:06.927Z,4.63
2022-08-26T04:10:12.748Z,5.23
2022-08-26T04:12:15.733Z,5.10
2022-08-26T04:14:21.535Z,5.13
2022-08-26T04:16:24.348Z,4.93
2022-08-26T04:18:36.888Z,4.90
2022-08-26T04:20:40.117Z,5.03
2022-08-26T04:22:43.052Z,5.20
2022-08-26T04:24:46.387Z,5.20
2022-08-26T04:26:50.794Z,4.70
2022-08-26T04:28:55.952Z,5.00
2022-08-26T04:30:59.145Z,5.13
2022-08-26T04:33:04.436Z,5.77
2022-08-26T04:35:16.223Z,5.43
2022-08-26T04:37:19.709Z,5.63
2022-08-26T04:39:25.281Z,5.60
2022-08-26T04:41:28.379Z,5.80
2022-08-26T04:43:36.959Z,5.43
2022-08-26T04:45:43.644Z,5.47
2022-08-26T04:47:46.738Z,5.47
2022-08-26T04:49:49.513Z,5.20
2022-08-26T04:51:53.450Z,5.47
2022-08-26T04:53:57.189Z,5.20
2022-08-26T04:56:00.284Z,5.93
2022-08-26T04:58:02.996Z,5.43
2022-08-26T05:00:11.855Z,5.70
2022-08-26T05:02:15.795Z,5.90
2022-08-26T05:04:20.112Z,5.63
2022-08-26T05:06:22.908Z,5.80
2022-08-26T05:08:25.988Z,5.80
2022-08-26T05:10:28.993Z,5.80
2022-08-26T05:12:33.065Z,6.00
2022-08-26T05:14:36.194Z,6.13
2022-08-26T05:16:40.979Z,6.03
2022-08-26T05:18:45.681Z,5.70
2022-08-26T05:20:51.732Z,6.67
2022-08-26T05:22:57.398Z,6.03
2022-08-26T05:25:00.126Z,6.00
2022-08-26T05:27:03.076Z,5.70
2022-08-26T05:29:10.329Z,5.80
2022-08-26T05:31:15.635Z,6.10
2022-08-26T05:33:23.228Z,6.23
2022-08-26T05:35:31.890Z,5.83
2022-08-26T05:37:34.649Z,6.07
2022-08-26T05:39:38.412Z,5.67
2022-08-26T05:41:44.789Z,5.80
2022-08-26T05:43:47.656Z,5.40
2022-08-26T05:45:51.917Z,5.30
2022-08-26T05:47:54.857Z,5.77
2022-08-26T05:49:59.006Z,5.90
2022-08-26T05:52:02.045Z,5.70
2022-08-26T05:54:06.632Z,5.53
2022-08-26T05:56:11.213Z,5.60
2022-08-26T05:58:14.528Z,5.70
2022-08-26T06:00:20.453Z,5.50
2022-08-26T06:02:23.897Z,6.20
2022-08-26T06:04:28.088Z,6.30
2022-08-26T06:06:35.827Z,7.60
2022-08-26T06:08:39.419Z,6.67
2022-08-26T06:10:47.651Z,5.83
2022-08-26T06:12:51.255Z,5.87
2022-08-26T06:14:55.011Z,5.90
2022-08-26T06:16:58.120Z,5.37
2022-08-26T06:19:00.962Z,5.57
2022-08-26T06:21:14.580Z,5.60
2022-08-26T06:23:37.964Z,5.83
2022-08-26T06:25:43.473Z,6.23
2022-08-26T06:27:46.248Z,8.57
2022-08-26T06:29:49.071Z,8.83
2022-08-26T06:31:52.024Z,7.97
2022-08-26T06:33:55.786Z,6.93
2022-08-26T06:35:59.028Z,7.03
2022-08-26T06:38:02.732Z,6.50
2022-08-26T06:40:09.451Z,6.70
2022-08-26T06:42:14.344Z,6.63
2022-08-26T06:44:18.306Z,6.93
2022-08-26T06:46:22.926Z,6.40
2022-08-26T06:48:25.744Z,5.80
2022-08-26T06:50:29.822Z,6.57
2022-08-26T06:52:33.026Z,5.83
2022-08-26T06:54:43.008Z,6.50
2022-08-26T06:56:47.907Z,6.40
2022-08-26T06:58:51.354Z,6.90
2022-08-26T07:00:54.103Z,6.17
2022-08-26T07:02:56.957Z,6.63
2022-08-26T07:04:59.773Z,6.13
2022-08-26T07:07:02.634Z,6.17
2022-08-26T07:09:09.799Z,5.87
2022-08-26T07:11:13.911Z,6.10
2022-08-26T07:13:18.235Z,6.20
2022-08-26T07:15:35.792Z,6.30
2022-08-26T07:17:38.780Z,5.77
2022-08-26T07:19:43.446Z,5.67
2022-08-26T07:21:46.287Z,5.57
2022-08-26T07:23:50.651Z,5.47
2022-08-26T07:25:53.395Z,5.63
2022-08-26T07:27:56.467Z,5.63
2022-08-26T07:30:01.091Z,5.00
2022-08-26T07:32:05.096Z,5.77
2022-08-26T07:34:09.329Z,5.30
2022-08-26T07:36:14.739Z,6.13
2022-08-26T07:38:17.575Z,5.70
2022-08-26T07:40:20.568Z,5.27
2022-08-26T07:42:23.519Z,5.67
2022-08-26T07:44:27.771Z,5.60
2022-08-26T07:46:31.937Z,5.47
2022-08-26T07:48:36.021Z,5.57
2022-08-26T07:50:49.224Z,5.50
2022-08-26T07:52:53.536Z,5.30
2022-08-26T07:54:57.994Z,4.90
2022-08-26T07:57:00.850Z,5.43
2022-08-26T07:59:13.675Z,5.20
2022-08-26T08:01:16.980Z,4.47
2022-08-26T08:03:21.591Z,5.17
2022-08-26T08:05:27.302Z,4.80
2022-08-26T08:07:45.005Z,4.47
2022-08-26T08:09:49.587Z,5.27
2022-08-26T08:11:53.660Z,5.60
2022-08-26T08:13:56.966Z,5.27
2022-08-26T08:16:00.517Z,4.80
2022-08-26T08:18:03.383Z,4.40
2022-08-26T08:20:09.534Z,5.23
2022-08-26T08:22:17.828Z,4.63
2022-08-26T08:24:22.644Z,5.20
2022-08-26T08:26:27.464Z,4.77
2022-08-26T08:28:30.359Z,4.53
2022-08-26T08:30:33.274Z,4.70
2022-08-26T08:32:39.186Z,4.70
2022-08-26T08:36:53.266Z,4.50
2022-08-26T08:38:56.833Z,4.67
2022-08-26T08:41:01.391Z,4.30
2022-08-26T08:43:13.529Z,4.63
2022-08-26T08:45:21.109Z,4.97
2022-08-26T08:47:32.149Z,4.50
2022-08-26T08:49:35.608Z,4.37
2022-08-26T08:51:43.578Z,4.07
2022-08-26T08:53:50.752Z,4.10
2022-08-26T08:56:06.123Z,4.47
2022-08-26T08:58:17.043Z,4.30
2022-08-26T09:00:30.339Z,4.37
2022-08-26T09:02:40.163Z,4.27
2022-08-26T09:05:06.628Z,4.43
2022-08-26T09:07:14.538Z,4.50
2022-08-26T09:09:24.896Z,4.03
2022-08-26T09:11:28.062Z,4.70
2022-08-26T09:13:31.907Z,5.10
2022-08-26T09:15:47.862Z,4.90
2022-08-26T09:18:01.590Z,5.10
2022-08-26T09:20:19.206Z,4.83
2022-08-26T09:22:33.253Z,5.23
2022-08-26T09:24:42.009Z,5.03
2022-08-26T09:26:52.648Z,5.20
2022-08-26T09:28:58.021Z,5.70
2022-08-26T09:31:11.766Z,5.50
2022-08-26T09:33:18.539Z,5.53
2022-08-26T09:35:27.098Z,5.30
2022-08-26T09:37:43.505Z,5.03
2022-08-26T09:39:48.219Z,5.33
2022-08-26T09:42:04.620Z,5.40
2022-08-26T09:44:17.620Z,5.10
2022-08-26T09:46:27.567Z,4.97
2022-08-26T09:48:36.123Z,4.50
2022-08-26T09:50:41.378Z,4.87
2022-08-26T09:52:46.183Z,4.77
2022-08-26T09:55:06.120Z,4.80
2022-08-26T09:57:22.271Z,4.77
2022-08-26T09:59:31.555Z,5.00
2022-08-26T10:01:37.880Z,5.03
2022-08-26T10:03:41.772Z,4.57
2022-08-26T10:05:55.259Z,4.70
2022-08-26T10:08:00.210Z,4.80
2022-08-26T10:10:09.289Z,5.00
2022-08-26T10:12:17.600Z,4.80
2022-08-26T10:14:25.415Z,4.90
2022-08-26T10:16:33.537Z,4.97
2022-08-26T10:18:41.302Z,5.30
2022-08-26T10:20:54.069Z,4.50
2022-08-26T10:23:02.726Z,5.00
2022-08-26T10:25:13.507Z,4.77
2022-08-26T10:27:26.841Z,4.80
2022-08-26T10:29:36.834Z,4.30
2022-08-26T10:31:42.416Z,4.80
2022-08-26T10:33:45.394Z,4.97
2022-08-26T10:35:52.720Z,5.47
2022-08-26T10:37:59.223Z,4.90
2022-08-26T10:40:08.638Z,4.60
2022-08-26T10:42:22.863Z,4.57
2022-08-26T10:44:27.582Z,4.97
2022-08-26T10:46:39.673Z,5.20
2022-08-26T10:48:48.969Z,4.77
2022-08-26T10:50:57.874Z,4.93
2022-08-26T10:53:08.770Z,4.67
2022-08-26T10:55:18.149Z,5.20
2022-08-26T10:57:30.122Z,4.80
2022-08-26T10:59:51.689Z,4.57
2022-08-26T11:02:00.756Z,4.77
2022-08-26T11:04:14.999Z,4.23
2022-08-26T11:06:26.091Z,4.33
2022-08-26T11:08:30.399Z,4.30
2022-08-26T11:10:58.889Z,4.73
2022-08-26T11:13:04.696Z,4.53
2022-08-26T11:15:08.238Z,5.30
2022-08-26T11:17:12.552Z,5.33
2022-08-26T11:20:00.289Z,5.50
2022-08-26T11:22:07.140Z,5.40
2022-08-26T11:24:09.949Z,4.67
2022-08-26T11:26:20.397Z,5.10
2022-08-26T11:28:44.184Z,5.23
2022-08-26T11:30:56.885Z,5.17
2022-08-26T11:33:01.210Z,5.20
2022-08-26T11:35:06.571Z,5.90
2022-08-26T11:37:16.716Z,4.63
2022-08-26T11:39:25.544Z,4.90
2022-08-26T11:41:31.331Z,4.60
2022-08-26T11:43:35.468Z,4.97
2022-08-26T11:45:42.734Z,4.57
2022-08-26T11:47:46.575Z,5.17
2022-08-26T11:50:06.412Z,4.53
2022-08-26T11:52:12.369Z,5.30
2022-08-26T11:54:18.172Z,5.10
2022-08-26T11:56:40.453Z,5.00
2022-08-26T11:58:45.542Z,4.57
2022-08-26T12:00:53.787Z,4.80
2022-08-26T12:03:02.303Z,4.60
2022-08-26T12:05:07.847Z,4.60
2022-08-26T12:07:11.959Z,4.87
2022-08-26T12:09:21.179Z,5.37
2022-08-26T12:11:26.339Z,5.00
2022-08-26T12:13:29.229Z,5.73
2022-08-26T12:15:35.474Z,5.30
2022-08-26T12:17:40.709Z,4.70
2022-08-26T12:19:44.231Z,4.93
2022-08-26T12:21:49.164Z,4.40
2022-08-26T12:23:54.559Z,5.30
2022-08-26T12:26:06.375Z,5.73
2022-08-26T12:28:10.728Z,6.07
2022-08-26T12:30:19.925Z,4.80
2022-08-26T12:32:25.332Z,4.40
2022-08-26T12:34:29.503Z,4.53
2022-08-26T12:36:36.132Z,5.03
2022-08-26T12:38:40.439Z,4.73
2022-08-26T12:40:45.181Z,4.97
2022-08-26T12:42:47.885Z,4.40
2022-08-26T12:44:59.300Z,4.23
2022-08-26T12:47:08.159Z,5.40
2022-08-26T12:49:11.035Z,4.80
2022-08-26T12:51:23.865Z,5.87
2022-08-26T12:53:28.836Z,5.30
2022-08-26T12:55:39.105Z,9.20
2022-08-26T12:57:42.063Z,4.60
2022-08-26T12:59:44.841Z,4.97
2022-08-26T13:01:48.503Z,4.60
2022-08-26T13:03:51.877Z,4.60
2022-08-26T13:06:08.646Z,4.83
2022-08-26T13:08:27.203Z,4.70
2022-08-26T13:10:36.391Z,4.50
2022-08-26T13:12:40.990Z,4.40
2022-08-26T13:14:43.723Z,5.00
2022-08-26T13:16:46.901Z,4.47
2022-08-26T13:18:51.400Z,4.70
2022-08-26T13:20:54.387Z,5.00
2022-08-26T13:22:58.725Z,4.80
2022-08-26T13:25:05.688Z,4.27
2022-08-26T13:27:10.332Z,4.67
2022-08-26T13:29:13.714Z,4.70
2022-08-26T13:31:17.417Z,4.93
2022-08-26T13:33:22.688Z,4.60
2022-08-26T13:35:25.490Z,4.73
2022-08-26T13:37:34.427Z,4.30
2022-08-26T13:39:38.144Z,4.80
2022-08-26T13:41:43.195Z,4.43
2022-08-26T13:43:45.966Z,4.80
2022-08-26T13:45:49.418Z,4.60
2022-08-26T13:47:52.253Z,4.90
2022-08-26T13:49:55.020Z,4.60
2022-08-26T13:51:57.775Z,4.60
2022-08-26T13:54:01.416Z,4.60
2022-08-26T13:56:06.954Z,4.07
2022-08-26T13:58:14.039Z,4.60
2022-08-26T14:00:17.849Z,4.67
2022-08-26T14:02:20.722Z,4.27
2022-08-26T14:04:27.342Z,4.40
2022-08-26T14:06:30.428Z,4.70
2022-08-26T14:08:33.283Z,5.47
2022-08-26T14:10:36.791Z,4.67
2022-08-26T14:12:40.782Z,4.70
2022-08-26T14:14:44.986Z,4.47
2022-08-26T14:16:56.093Z,4.67
2022-08-26T14:19:05.693Z,4.40
2022-08-26T14:21:10.239Z,4.20
2022-08-26T14:23:14.237Z,5.13
2022-08-26T14:25:17.882Z,4.30
2022-08-26T14:27:20.620Z,4.97
2022-08-26T14:29:23.409Z,4.70
2022-08-26T14:31:29.000Z,5.37
2022-08-26T14:33:34.857Z,5.20
2022-08-26T14:35:37.666Z,5.10
2022-08-26T14:37:40.481Z,5.00
2022-08-26T14:39:43.271Z,4.70
2022-08-26T14:41:54.070Z,4.40
2022-08-26T14:44:01.419Z,4.57
2022-08-26T14:46:05.057Z,4.40
2022-08-26T14:48:09.627Z,4.80
2022-08-26T14:50:14.239Z,5.00
2022-08-26T14:52:17.513Z,4.63
2022-08-26T14:54:20.644Z,4.70
2022-08-26T14:56:23.674Z,4.83
2022-08-26T14:58:28.592Z,4.63
2022-08-26T15:00:38.208Z,4.60
2022-08-26T15:02:41.330Z,4.63
2022-08-26T15:04:45.568Z,5.03
2022-08-26T15:06:48.770Z,4.57
2022-08-26T15:08:51.538Z,4.60
2022-08-26T15:10:54.293Z,5.40
2022-08-26T15:12:57.087Z,4.80
2022-08-26T15:15:00.134Z,4.93
2022-08-26T15:17:02.956Z,4.63
2022-08-26T15:19:06.292Z,4.17
2022-08-26T15:21:10.451Z,4.13
2022-08-26T15:23:14.653Z,4.17
2022-08-26T15:25:18.050Z,4.30
2022-08-26T15:27:21.197Z,4.70
2022-08-26T15:29:24.883Z,4.60
2022-08-26T15:31:31.202Z,4.57
2022-08-26T15:33:34.357Z,4.63
2022-08-26T15:35:38.488Z,4.87
2022-08-26T15:37:46.856Z,5.00
2022-08-26T15:39:50.472Z,4.43
2022-08-26T15:41:53.268Z,4.30
2022-08-26T15:43:56.355Z,4.40
2022-08-26T15:46:00.092Z,4.53
2022-08-26T15:48:03.417Z,4.40
2022-08-26T15:50:07.747Z,4.23
2022-08-26T15:52:10.654Z,4.10
2022-08-26T15:54:15.964Z,3.93
2022-08-26T15:56:19.249Z,4.43
2022-08-26T15:58:23.013Z,3.70
2022-08-26T16:00:27.504Z,3.80
2022-08-26T16:02:32.295Z,4.00
2022-08-26T16:04:35.257Z,4.23
2022-08-26T16:06:40.462Z,4.43
2022-08-26T16:08:43.209Z,4.33
2022-08-26T16:10:50.554Z,4.30
2022-08-26T16:12:53.813Z,5.00
2022-08-26T16:14:56.574Z,4.97
2022-08-26T16:16:59.327Z,4.67
2022-08-26T16:19:05.624Z,4.67
2022-08-26T16:21:15.512Z,4.60
2022-08-26T16:23:18.775Z,4.80
2022-08-26T16:25:21.693Z,5.07
2022-08-26T16:27:25.837Z,5.33
2022-08-26T16:29:28.740Z,5.00
2022-08-26T16:31:31.699Z,4.60
2022-08-26T16:33:34.515Z,4.53
2022-08-26T16:35:37.261Z,4.50
2022-08-26T16:37:40.277Z,4.77
2022-08-26T16:39:45.065Z,5.00
2022-08-26T16:41:48.119Z,5.03
2022-08-26T16:43:55.069Z,5.97
2022-08-26T16:45:57.934Z,5.67
2022-08-26T16:48:00.757Z,6.17
2022-08-26T16:50:04.336Z,6.20
2022-08-26T16:52:08.652Z,5.90
2022-08-26T16:54:11.427Z,5.33
2022-08-26T16:56:14.656Z,4.93
2022-08-26T16:58:18.301Z,6.80
2022-08-26T17:00:27.614Z,5.27
2022-08-26T17:02:30.486Z,5.63
2022-08-26T17:04:33.289Z,5.60
2022-08-26T17:06:36.143Z,5.70
2022-08-26T17:08:39.226Z,5.60
2022-08-26T17:12:45.765Z,4.83
2022-08-26T17:14:48.596Z,5.03
2022-08-26T17:16:53.544Z,5.90
2022-08-26T17:18:57.285Z,5.57
2022-08-26T17:21:01.969Z,5.70
2022-08-26T17:23:05.274Z,5.97
2022-08-26T17:25:11.796Z,5.20
2022-08-26T17:27:14.656Z,5.20
2022-08-26T17:29:17.428Z,6.40
2022-08-26T17:31:20.777Z,6.47
2022-08-26T17:33:25.276Z,5.70
2022-08-26T17:35:28.226Z,5.80
2022-08-26T17:37:31.299Z,5.40
2022-08-26T17:39:34.053Z,5.90
2022-08-26T17:41:36.813Z,5.47
2022-08-26T17:43:40.301Z,6.10
2022-08-26T17:45:43.302Z,6.23
2022-08-26T17:47:46.103Z,5.73
2022-08-26T17:49:50.251Z,6.23
2022-08-26T17:51:53.059Z,6.20
2022-08-26T17:53:55.872Z,6.27
2022-08-26T17:55:58.643Z,6.03
2022-08-26T17:58:03.934Z,6.97
2022-08-26T18:00:14.542Z,6.07
2022-08-26T18:02:17.455Z,6.10
2022-08-26T18:04:20.369Z,6.87
2022-08-26T18:06:25.771Z,5.90
2022-08-26T18:08:28.728Z,6.53
2022-08-26T18:10:31.475Z,5.73
2022-08-26T18:12:34.336Z,5.60
2022-08-26T18:14:37.263Z,5.40
2022-08-26T18:16:41.612Z,4.40
2022-08-26T18:18:44.624Z,6.27
2022-08-26T18:21:01.242Z,7.27
2022-08-26T18:23:06.125Z,5.90
2022-08-26T18:25:10.241Z,5.47
2022-08-26T18:27:15.766Z,5.07
2022-08-26T18:29:20.349Z,4.77
2022-08-26T18:31:23.213Z,3.67
2022-08-26T18:33:26.016Z,4.33
2022-08-26T18:35:30.227Z,4.30
2022-08-26T18:37:34.135Z,4.17
2022-08-26T18:39:38.236Z,4.57
2022-08-26T18:41:43.311Z,3.97
2022-08-26T18:43:46.067Z,4.30
2022-08-26T18:45:48.824Z,4.17
2022-08-26T18:47:51.648Z,4.23
2022-08-26T18:49:54.810Z,4.00
2022-08-26T18:51:57.552Z,4.60
2022-08-26T18:54:02.415Z,4.00
2022-08-26T18:56:06.866Z,4.10
2022-08-26T18:58:09.719Z,4.37
2022-08-26T19:00:14.554Z,4.53
2022-08-26T19:02:17.600Z,4.13
2022-08-26T19:04:21.995Z,4.87
2022-08-26T19:06:27.038Z,4.10
2022-08-26T19:08:30.148Z,4.13
2022-08-26T19:10:32.988Z,4.20
2022-08-26T19:12:37.265Z,4.40
2022-08-26T19:14:40.096Z,4.50
2022-08-26T19:16:45.126Z,4.47
2022-08-26T19:18:48.158Z,4.07
2022-08-26T19:20:50.861Z,3.97
2022-08-26T19:22:53.632Z,4.13
2022-08-26T19:24:56.440Z,4.13
2022-08-26T19:27:01.586Z,3.90
2022-08-26T19:29:05.769Z,7.27
2022-08-26T19:31:12.937Z,4.00
2022-08-26T19:33:16.811Z,3.97
2022-08-26T19:35:19.741Z,4.20
2022-08-26T19:37:23.052Z,3.77
2022-08-26T19:39:26.438Z,3.90
2022-08-26T19:41:36.912Z,3.90
2022-08-26T19:43:40.551Z,3.83
2022-08-26T19:45:45.223Z,3.90
2022-08-26T19:47:48.781Z,4.17
2022-08-26T19:49:54.138Z,3.80
2022-08-26T19:51:56.923Z,4.43
2022-08-26T19:54:01.718Z,3.93
2022-08-26T19:56:04.867Z,4.30
2022-08-26T19:58:07.961Z,3.97
2022-08-26T20:00:14.725Z,3.70
2022-08-26T20:02:19.218Z,3.80
2022-08-26T20:04:22.293Z,3.50
2022-08-26T20:06:25.171Z,3.97
2022-08-26T20:08:28.621Z,3.63
2022-08-26T20:10:35.193Z,3.80
2022-08-26T20:12:37.997Z,3.73
2022-08-26T20:14:40.852Z,3.87
2022-08-26T20:16:44.588Z,4.07
2022-08-26T20:19:06.136Z,3.70
2022-08-26T20:21:27.162Z,4.00
2022-08-26T20:23:30.152Z,3.80
2022-08-26T20:25:34.043Z,3.67
2022-08-26T20:27:38.250Z,3.60
2022-08-26T20:29:42.960Z,3.67
2022-08-26T20:31:46.861Z,3.30
2022-08-26T20:33:51.693Z,3.60
2022-08-26T20:35:54.640Z,3.83
2022-08-26T20:37:57.485Z,3.77
2022-08-26T20:40:00.757Z,4.00
2022-08-26T20:42:04.328Z,4.20
2022-08-26T20:44:09.310Z,3.87
2022-08-26T20:46:18.797Z,3.60
2022-08-26T20:48:23.546Z,3.50
2022-08-26T20:50:28.047Z,3.97
2022-08-26T20:52:30.858Z,3.77
2022-08-26T20:54:33.667Z,3.60
2022-08-26T20:56:37.501Z,4.00
2022-08-26T20:58:41.026Z,3.60
2022-08-26T21:00:43.992Z,15.00
2022-08-26T21:02:47.026Z,8.90
2022-08-26T21:04:49.980Z,6.90
2022-08-26T21:06:55.401Z,4.93
2022-08-26T21:08:58.428Z,7.30
2022-08-26T21:11:01.987Z,6.83
2022-08-26T21:13:07.762Z,7.37
2022-08-26T21:15:12.051Z,7.43
2022-08-26T21:17:15.062Z,7.23
2022-08-26T21:19:19.886Z,6.43
2022-08-26T21:21:25.277Z,7.53
2022-08-26T21:23:29.553Z,7.03
2022-08-26T21:25:32.380Z,6.57
2022-08-26T21:27:35.564Z,6.90
2022-08-26T21:29:38.409Z,6.60
2022-08-26T21:31:46.010Z,6.50
2022-08-26T21:33:50.972Z,7.37
2022-08-26T21:35:54.668Z,7.33
2022-08-26T21:37:57.429Z,6.67
2022-08-26T21:40:03.510Z,6.83
2022-08-26T21:42:06.542Z,6.77
2022-08-26T21:44:10.103Z,7.20
2022-08-26T21:46:15.681Z,7.47
2022-08-26T21:48:18.448Z,8.37
2022-08-26T21:50:21.285Z,8.23
2022-08-26T21:52:25.437Z,8.10
2022-08-26T21:54:28.192Z,8.83
2022-08-26T21:56:34.490Z,8.43
2022-08-26T21:58:37.513Z,8.93
2022-08-26T22:00:46.515Z,8.70
2022-08-26T22:02:50.176Z,10.17
2022-08-26T22:04:52.972Z,8.33
2022-08-26T22:06:58.887Z,9.17
2022-08-26T22:09:01.832Z,9.87
2022-08-26T22:11:05.516Z,9.60
2022-08-26T22:13:10.775Z,10.20
2022-08-26T22:15:14.175Z,10.13
2022-08-26T22:17:16.931Z,9.57
2022-08-26T22:19:20.919Z,9.70
2022-08-26T22:21:28.558Z,8.80
2022-08-26T22:23:31.378Z,8.73
2022-08-26T22:25:34.602Z,8.03
2022-08-26T22:27:40.442Z,8.00
2022-08-26T22:29:47.905Z,7.80
2022-08-26T22:31:50.882Z,7.00
2022-08-26T22:33:53.847Z,6.90
2022-08-26T22:35:56.959Z,6.90
2022-08-26T22:38:00.464Z,7.63
2022-08-26T22:40:03.826Z,8.03
2022-08-26T22:42:07.146Z,8.30
2022-08-26T22:44:11.560Z,8.70
2022-08-26T22:46:19.038Z,8.83
2022-08-26T22:48:24.221Z,7.70
2022-08-26T22:50:27.311Z,8.40
2022-08-26T22:52:30.057Z,9.60
2022-08-26T22:54:32.978Z,10.23
2022-08-26T22:56:36.828Z,9.63
2022-08-26T22:58:39.843Z,8.80
2022-08-26T23:00:43.135Z,10.90
2022-08-26T23:02:48.205Z,10.13
2022-08-26T23:04:51.163Z,10.50
2022-08-26T23:06:53.960Z,11.73
2022-08-26T23:08:56.705Z,9.93
2022-08-26T23:10:59.427Z,11.30
2022-08-26T23:13:04.174Z,11.40
2022-08-26T23:15:09.138Z,11.50
2022-08-26T23:17:14.286Z,11.27
2022-08-26T23:19:20.528Z,11.17
2022-08-26T23:21:23.349Z,11.73
2022-08-26T23:23:27.582Z,12.13
2022-08-26T23:25:32.307Z,11.37
2022-08-26T23:27:35.690Z,10.93
2022-08-26T23:29:39.606Z,10.43
2022-08-26T23:31:43.571Z,9.83
2022-08-26T23:34:04.262Z,9.53
2022-08-26T23:36:09.571Z,9.40
2022-08-26T23:38:14.247Z,9.77
2022-08-26T23:40:20.445Z,9.90
2022-08-26T23:42:23.338Z,9.53
2022-08-26T23:44:26.623Z,9.00
2022-08-26T23:46:29.438Z,9.23
2022-08-26T23:48:32.340Z,9.80
2022-08-26T23:50:52.884Z,9.37
2022-08-26T23:53:08.967Z,9.17
2022-08-26T23:55:13.293Z,8.37
2022-08-26T23:57:17.610Z,8.43
2022-08-26T23:59:20.604Z,8.80
